createdAt,value
2019-02-06T00:02:27.370Z,52.03
2019-02-06T00:04:58.858Z,44.53
2019-02-06T00:07:31.954Z,47.83
2019-02-06T00:10:06.264Z,56.37
2019-02-06T00:12:37.166Z,56.50
2019-02-06T00:15:08.436Z,46.07
2019-02-06T00:17:39.234Z,45.83
2019-02-06T00:20:10.668Z,57.37
2019-02-06T00:22:49.477Z,52.30
2019-02-06T00:25:20.329Z,45.37
2019-02-06T00:27:51.760Z,53.33
2019-02-06T00:30:24.948Z,47.60
2019-02-06T00:32:55.947Z,51.90
2019-02-06T00:35:27.170Z,54.10
2019-02-06T00:37:58.650Z,51.80
2019-02-06T00:40:29.367Z,46.97
2019-02-06T00:42:59.998Z,49.50
2019-02-06T00:45:31.285Z,50.87
2019-02-06T00:48:02.328Z,49.73
2019-02-06T00:50:33.076Z,55.57
2019-02-06T00:53:04.087Z,53.60
2019-02-06T00:55:35.105Z,49.23
2019-02-06T00:58:07.096Z,53.30
2019-02-06T01:00:38.965Z,56.27
2019-02-06T01:03:10.931Z,47.70
2019-02-06T01:05:42.566Z,59.67
2019-02-06T01:08:14.173Z,42.87
2019-02-06T01:10:45.196Z,57.93
2019-02-06T01:13:16.175Z,52.90
2019-02-06T01:15:47.783Z,55.50
2019-02-06T01:18:18.915Z,55.30
2019-02-06T01:20:49.738Z,57.03
2019-02-06T01:23:21.436Z,63.03
2019-02-06T01:25:52.302Z,53.10
2019-02-06T01:28:23.247Z,54.97
2019-02-06T01:30:58.097Z,50.57
2019-02-06T01:33:29.233Z,54.53
2019-02-06T01:36:01.963Z,54.93
2019-02-06T01:38:33.159Z,49.00
2019-02-06T01:41:05.127Z,55.70
2019-02-06T01:43:35.948Z,51.00
2019-02-06T01:46:07.173Z,46.63
2019-02-06T01:48:38.575Z,53.73
2019-02-06T01:51:09.309Z,58.80
2019-02-06T01:53:40.107Z,50.57
2019-02-06T01:56:12.561Z,62.27
2019-02-06T01:58:43.765Z,54.20
2019-02-06T02:01:17.811Z,61.27
2019-02-06T02:03:49.021Z,60.23
2019-02-06T02:06:20.258Z,60.67
2019-02-06T02:08:57.843Z,59.17
2019-02-06T02:11:28.696Z,57.67
2019-02-06T02:13:59.432Z,55.90
2019-02-06T02:16:31.488Z,60.10
2019-02-06T02:19:03.504Z,62.13
2019-02-06T02:21:35.094Z,63.13
2019-02-06T02:24:06.234Z,60.33
2019-02-06T02:26:37.787Z,58.20
2019-02-06T02:29:08.658Z,60.53
2019-02-06T02:31:39.737Z,54.97
2019-02-06T02:34:10.672Z,51.17
2019-02-06T02:36:42.156Z,54.10
2019-02-06T02:39:14.641Z,56.97
2019-02-06T02:41:45.902Z,59.10
2019-02-06T02:44:16.948Z,55.60
2019-02-06T02:46:48.187Z,67.70
2019-02-06T02:49:19.351Z,57.17
2019-02-06T02:51:53.094Z,51.67
2019-02-06T02:54:24.025Z,54.87
2019-02-06T02:56:55.285Z,55.93
2019-02-06T02:59:26.510Z,51.40
2019-02-06T03:02:17.698Z,54.80
2019-02-06T03:04:53.025Z,46.97
2019-02-06T03:07:24.458Z,53.30
2019-02-06T03:09:55.524Z,51.83
2019-02-06T03:12:26.990Z,57.23
2019-02-06T03:14:57.648Z,52.40
2019-02-06T03:17:29.303Z,53.97
2019-02-06T03:20:00.572Z,48.13
2019-02-06T03:22:33.023Z,46.40
2019-02-06T03:25:04.082Z,47.63
2019-02-06T03:27:35.393Z,46.23
2019-02-06T03:30:08.891Z,47.93
2019-02-06T03:32:40.614Z,47.97
2019-02-06T03:35:12.070Z,45.37
2019-02-06T03:37:42.869Z,38.63
2019-02-06T03:40:14.753Z,50.43
2019-02-06T03:42:46.061Z,47.37
2019-02-06T03:45:17.868Z,39.77
2019-02-06T03:47:48.664Z,44.93
2019-02-06T03:50:20.135Z,43.83
2019-02-06T03:52:51.110Z,44.33
2019-02-06T03:55:22.102Z,40.20
2019-02-06T03:57:52.974Z,43.43
2019-02-06T04:00:24.399Z,40.63
2019-02-06T04:02:55.388Z,38.53
2019-02-06T04:05:26.296Z,39.07
2019-02-06T04:07:57.781Z,41.00
2019-02-06T04:10:29.132Z,42.83
2019-02-06T04:13:00.356Z,40.80
2019-02-06T04:15:31.722Z,39.37
2019-02-06T04:18:02.558Z,39.83
2019-02-06T04:20:33.462Z,41.90
2019-02-06T04:23:04.486Z,43.80
2019-02-06T04:25:36.260Z,40.83
2019-02-06T04:28:07.303Z,43.83
2019-02-06T04:30:38.399Z,45.90
2019-02-06T04:33:09.420Z,42.63
2019-02-06T04:35:40.762Z,45.17
2019-02-06T04:38:11.695Z,42.00
2019-02-06T04:40:43.070Z,53.47
2019-02-06T04:43:14.059Z,48.93
2019-02-06T04:45:45.193Z,49.73
2019-02-06T04:48:16.063Z,43.23
2019-02-06T04:50:47.326Z,48.07
2019-02-06T04:53:18.608Z,48.03
2019-02-06T04:55:49.640Z,51.73
2019-02-06T04:58:20.243Z,52.67
2019-02-06T05:00:51.120Z,49.87
2019-02-06T05:03:22.104Z,44.87
2019-02-06T05:05:59.971Z,45.03
2019-02-06T05:08:30.806Z,41.73
2019-02-06T05:11:01.705Z,45.40
2019-02-06T05:13:32.729Z,52.90
2019-02-06T05:16:03.739Z,35.77
2019-02-06T05:18:35.005Z,45.07
2019-02-06T05:21:10.511Z,49.07
2019-02-06T05:23:44.982Z,43.47
2019-02-06T05:26:18.864Z,41.37
2019-02-06T05:28:50.120Z,41.83
2019-02-06T05:31:20.767Z,45.03
2019-02-06T05:33:51.742Z,38.80
2019-02-06T05:36:22.988Z,37.40
2019-02-06T05:38:53.780Z,45.00
2019-02-06T05:41:24.867Z,49.17
2019-02-06T05:43:56.033Z,43.80
2019-02-06T05:46:26.813Z,41.90
2019-02-06T05:49:00.103Z,44.87
2019-02-06T05:51:32.277Z,45.80
2019-02-06T05:54:03.929Z,42.27
2019-02-06T05:56:35.257Z,45.27
2019-02-06T05:59:06.027Z,41.70
2019-02-06T06:01:39.715Z,43.13
2019-02-06T06:04:10.669Z,41.83
2019-02-06T06:06:41.708Z,46.70
2019-02-06T06:09:13.126Z,44.47
2019-02-06T06:11:44.014Z,43.60
2019-02-06T06:14:14.667Z,47.67
2019-02-06T06:16:45.893Z,46.97
2019-02-06T06:19:17.183Z,47.70
2019-02-06T06:21:48.003Z,43.27
2019-02-06T06:24:22.109Z,47.67
2019-02-06T06:26:53.234Z,42.47
2019-02-06T06:29:24.156Z,47.00
2019-02-06T06:31:59.513Z,46.90
2019-02-06T06:34:31.161Z,41.57
2019-02-06T06:37:05.840Z,43.17
2019-02-06T06:39:36.483Z,42.83
2019-02-06T06:42:09.010Z,42.40
2019-02-06T06:44:40.337Z,42.97
2019-02-06T06:47:14.639Z,43.60
2019-02-06T06:49:49.076Z,42.90
2019-02-06T06:52:20.045Z,50.37
2019-02-06T06:54:51.743Z,48.20
2019-02-06T06:57:23.640Z,43.17
2019-02-06T06:59:56.390Z,40.50
2019-02-06T07:02:27.348Z,42.90
2019-02-06T07:04:59.452Z,45.67
2019-02-06T07:07:30.338Z,37.97
2019-02-06T07:10:00.983Z,44.17
2019-02-06T07:12:32.486Z,39.03
2019-02-06T07:15:06.116Z,39.73
2019-02-06T07:17:41.616Z,43.07
2019-02-06T07:20:18.363Z,37.40
2019-02-06T07:22:53.519Z,47.53
2019-02-06T07:25:25.544Z,42.97
2019-02-06T07:27:56.201Z,44.60
2019-02-06T07:30:34.836Z,45.50
2019-02-06T07:33:08.381Z,47.03
2019-02-06T07:35:39.901Z,42.43
2019-02-06T07:38:23.249Z,50.43
2019-02-06T07:40:45.798Z,43.50
2019-02-06T07:43:16.884Z,43.87
2019-02-06T07:45:48.946Z,45.53
2019-02-06T07:48:23.639Z,57.57
2019-02-06T07:50:54.185Z,50.37
2019-02-06T07:53:26.442Z,48.80
2019-02-06T07:55:57.239Z,45.57
2019-02-06T07:58:28.304Z,50.23
2019-02-06T08:00:59.114Z,52.67
2019-02-06T08:03:31.908Z,56.50
2019-02-06T08:06:06.337Z,49.13
2019-02-06T08:08:36.975Z,54.20
2019-02-06T08:11:09.984Z,43.93
2019-02-06T08:13:41.171Z,37.63
2019-02-06T08:16:13.702Z,43.50
2019-02-06T08:18:54.379Z,44.33
2019-02-06T08:21:26.971Z,40.13
2019-02-06T08:23:58.475Z,48.80
2019-02-06T08:26:34.242Z,43.90
2019-02-06T08:29:13.747Z,45.87
2019-02-06T08:31:46.010Z,40.77
2019-02-06T08:34:18.455Z,42.23
2019-02-06T08:36:51.193Z,46.53
2019-02-06T08:39:23.597Z,44.40
2019-02-06T08:41:57.414Z,45.07
2019-02-06T08:44:30.378Z,45.73
2019-02-06T08:47:03.177Z,48.13
2019-02-06T08:49:35.873Z,43.97
2019-02-06T08:52:10.141Z,41.43
2019-02-06T08:54:41.350Z,47.87
2019-02-06T08:57:13.284Z,45.80
2019-02-06T08:59:45.262Z,44.57
2019-02-06T09:02:16.747Z,47.27
2019-02-06T09:04:55.936Z,46.47
2019-02-06T09:07:22.066Z,40.77
2019-02-06T09:09:55.466Z,45.10
2019-02-06T09:12:27.179Z,35.73
2019-02-06T09:15:03.729Z,48.00
2019-02-06T09:17:38.347Z,33.30
2019-02-06T09:20:14.100Z,40.07
2019-02-06T09:22:46.270Z,33.03
2019-02-06T09:25:18.727Z,37.07
2019-02-06T09:27:55.557Z,31.37
2019-02-06T09:30:27.716Z,34.03
2019-02-06T09:33:02.171Z,31.67
2019-02-06T09:35:33.265Z,33.27
2019-02-06T09:38:07.143Z,28.77
2019-02-06T09:40:49.409Z,29.33
2019-02-06T09:43:21.383Z,30.20
2019-02-06T09:45:53.074Z,27.93
2019-02-06T09:48:27.357Z,31.47
2019-02-06T09:50:58.108Z,29.27
2019-02-06T09:53:31.289Z,25.07
2019-02-06T09:56:04.284Z,29.47
2019-02-06T09:58:36.515Z,29.73
2019-02-06T10:01:08.932Z,25.53
2019-02-06T10:03:40.004Z,25.93
2019-02-06T10:06:12.212Z,25.90
2019-02-06T10:08:42.920Z,27.30
2019-02-06T10:11:16.297Z,23.80
2019-02-06T10:13:49.634Z,29.27
2019-02-06T10:16:24.432Z,24.77
2019-02-06T10:18:57.792Z,27.37
2019-02-06T10:21:30.919Z,25.50
2019-02-06T10:24:03.439Z,23.97
2019-02-06T10:26:34.814Z,24.97
2019-02-06T10:29:06.262Z,20.17
2019-02-06T10:31:40.090Z,20.23
2019-02-06T10:34:16.639Z,21.37
2019-02-06T10:36:47.996Z,23.60
2019-02-06T10:39:19.296Z,19.97
2019-02-06T10:41:50.594Z,19.93
2019-02-06T10:44:21.628Z,24.13
2019-02-06T10:46:52.865Z,24.40
2019-02-06T10:49:24.647Z,20.97
2019-02-06T10:51:58.873Z,18.87
2019-02-06T10:54:35.050Z,23.20
2019-02-06T10:57:05.451Z,23.97
2019-02-06T10:59:39.310Z,23.07
2019-02-06T11:02:26.419Z,23.80
2019-02-06T11:04:59.895Z,26.07
2019-02-06T11:07:32.878Z,21.73
2019-02-06T11:10:04.090Z,23.20
2019-02-06T11:12:36.428Z,22.90
2019-02-06T11:15:10.542Z,21.63
2019-02-06T11:17:41.692Z,19.77
2019-02-06T11:20:16.579Z,22.03
2019-02-06T11:22:47.805Z,18.23
2019-02-06T11:25:19.392Z,18.67
2019-02-06T11:27:51.950Z,18.53
2019-02-06T11:30:28.067Z,18.27
2019-02-06T11:33:03.335Z,17.90
2019-02-06T11:35:37.092Z,17.40
2019-02-06T11:38:08.546Z,18.07
2019-02-06T11:40:39.916Z,18.07
2019-02-06T11:43:13.905Z,16.40
2019-02-06T11:45:44.729Z,13.63
2019-02-06T11:48:16.085Z,13.70
2019-02-06T11:50:48.626Z,12.67
2019-02-06T11:53:26.542Z,15.23
2019-02-06T11:55:57.810Z,13.63
2019-02-06T11:58:29.083Z,14.97
2019-02-06T12:01:24.886Z,16.00
2019-02-06T12:03:56.444Z,13.47
2019-02-06T12:06:28.368Z,14.70
2019-02-06T12:09:02.309Z,16.53
2019-02-06T12:11:34.983Z,13.47
2019-02-06T12:14:07.855Z,14.97
2019-02-06T12:16:39.275Z,16.23
2019-02-06T12:19:14.272Z,14.73
2019-02-06T12:21:47.142Z,16.57
2019-02-06T12:24:19.352Z,16.87
2019-02-06T12:26:52.093Z,16.40
2019-02-06T12:29:23.583Z,17.80
2019-02-06T12:31:57.378Z,16.43
2019-02-06T12:34:33.345Z,17.40
2019-02-06T12:37:04.456Z,18.10
2019-02-06T12:39:35.144Z,18.87
2019-02-06T12:42:06.751Z,17.10
2019-02-06T12:44:37.800Z,17.50
2019-02-06T12:47:10.802Z,18.30
2019-02-06T12:49:41.534Z,19.83
2019-02-06T12:52:16.640Z,18.07
2019-02-06T12:54:49.812Z,20.70
2019-02-06T12:57:21.077Z,19.03
2019-02-06T12:59:54.849Z,20.77
2019-02-06T13:02:38.866Z,19.90
2019-02-06T13:05:11.225Z,24.50
2019-02-06T13:07:44.723Z,21.27
2019-02-06T13:10:16.494Z,19.53
2019-02-06T13:12:47.603Z,21.97
2019-02-06T13:15:21.291Z,19.47
2019-02-06T13:17:52.293Z,22.30
2019-02-06T13:20:33.602Z,20.03
2019-02-06T13:23:04.436Z,19.57
2019-02-06T13:25:43.991Z,19.43
2019-02-06T13:28:15.337Z,19.90
2019-02-06T13:30:50.271Z,23.80
2019-02-06T13:33:22.252Z,23.70
2019-02-06T13:35:53.454Z,20.50
2019-02-06T13:38:24.291Z,21.13
2019-02-06T13:40:56.848Z,18.90
2019-02-06T13:43:37.874Z,20.03
2019-02-06T13:46:09.006Z,17.83
2019-02-06T13:48:40.278Z,16.40
2019-02-06T13:51:17.441Z,17.43
2019-02-06T13:53:47.094Z,20.07
2019-02-06T13:56:17.857Z,20.33
2019-02-06T13:58:48.555Z,22.37
2019-02-06T14:01:25.769Z,20.50
2019-02-06T14:03:52.198Z,18.30
2019-02-06T14:06:23.060Z,17.07
2019-02-06T14:08:57.080Z,17.97
2019-02-06T14:11:29.230Z,19.10
2019-02-06T14:14:01.509Z,20.37
2019-02-06T14:16:35.066Z,18.10
2019-02-06T14:19:09.808Z,20.20
2019-02-06T14:21:41.062Z,19.67
2019-02-06T14:24:27.691Z,16.73
2019-02-06T14:27:45.198Z,17.43
2019-02-06T14:31:12.884Z,16.10
2019-02-06T14:34:36.768Z,18.03
2019-02-06T14:37:24.246Z,19.27
2019-02-06T14:40:27.620Z,19.07
2019-02-06T14:43:42.437Z,16.40
2019-02-06T14:46:51.097Z,18.77
2019-02-06T14:49:45.858Z,17.87
2019-02-06T14:52:42.645Z,14.47
2019-02-06T14:55:56.649Z,21.17
2019-02-06T14:59:11.257Z,19.83
2019-02-06T15:02:30.748Z,18.07
2019-02-06T15:05:54.750Z,13.77
2019-02-06T15:09:16.995Z,19.07
2019-02-06T15:12:45.683Z,19.63
2019-02-06T15:15:59.901Z,19.97
2019-02-06T15:19:29.082Z,14.60
2019-02-06T15:22:36.627Z,18.77
2019-02-06T15:25:34.718Z,23.27
2019-02-06T15:28:49.401Z,17.07
2019-02-06T15:32:11.493Z,17.10
2019-02-06T15:35:20.398Z,18.73
2019-02-06T15:38:24.755Z,21.17
2019-02-06T15:41:11.053Z,21.17
2019-02-06T15:44:06.103Z,23.57
2019-02-06T15:47:17.038Z,21.23
2019-02-06T15:50:14.390Z,16.97
2019-02-06T15:53:02.111Z,15.20
2019-02-06T15:56:37.626Z,19.53
2019-02-06T15:59:41.014Z,15.87
2019-02-06T16:02:26.071Z,20.50
2019-02-06T16:06:02.107Z,17.07
2019-02-06T16:09:26.131Z,20.77
2019-02-06T16:12:33.013Z,20.83
2019-02-06T16:15:31.819Z,25.33
2019-02-06T16:19:09.001Z,17.20
2019-02-06T16:22:23.696Z,22.37
2019-02-06T16:25:32.156Z,18.53
2019-02-06T16:28:25.693Z,20.23
2019-02-06T16:31:15.580Z,22.57
2019-02-06T16:34:42.521Z,22.23
2019-02-06T16:37:41.009Z,21.53
2019-02-06T16:41:07.849Z,18.20
2019-02-06T16:44:01.770Z,19.33
2019-02-06T16:47:10.001Z,22.47
2019-02-06T16:50:40.003Z,24.47
2019-02-06T16:53:39.760Z,21.70
2019-02-06T16:56:55.761Z,17.07
2019-02-06T17:00:08.274Z,20.70
2019-02-06T17:03:24.545Z,22.33
2019-02-06T17:06:33.731Z,22.17
2019-02-06T17:09:49.012Z,18.00
2019-02-06T17:12:31.786Z,25.80
2019-02-06T17:15:44.529Z,20.17
2019-02-06T17:18:45.255Z,22.60
2019-02-06T17:22:04.747Z,22.07
2019-02-06T17:25:19.565Z,21.53
2019-02-06T17:28:38.014Z,19.30
2019-02-06T17:31:49.791Z,22.70
2019-02-06T17:35:00.638Z,22.30
2019-02-06T17:38:27.376Z,18.53
2019-02-06T17:41:27.726Z,22.63
2019-02-06T17:44:41.970Z,20.20
2019-02-06T17:47:46.541Z,21.27
2019-02-06T17:50:56.470Z,22.10
2019-02-06T17:54:04.352Z,23.33
2019-02-06T17:56:36.040Z,21.77
2019-02-06T17:59:07.863Z,23.17
2019-02-06T18:01:56.804Z,17.30
2019-02-06T18:04:33.751Z,24.37
2019-02-06T18:07:07.082Z,22.53
2019-02-06T18:09:49.500Z,20.23
2019-02-06T18:12:27.085Z,18.57
2019-02-06T18:15:01.930Z,22.37
2019-02-06T18:17:38.982Z,19.33
2019-02-06T18:20:14.910Z,22.07
2019-02-06T18:22:48.733Z,22.03
2019-02-06T18:25:20.432Z,22.87
2019-02-06T18:27:57.176Z,23.73
2019-02-06T18:30:29.019Z,21.43
2019-02-06T18:33:01.613Z,23.83
2019-02-06T18:35:39.573Z,23.77
2019-02-06T18:38:13.805Z,19.37
2019-02-06T18:40:50.947Z,25.40
2019-02-06T18:43:26.953Z,19.30
2019-02-06T18:46:09.292Z,23.07
2019-02-06T18:48:59.298Z,27.10
2019-02-06T18:51:39.646Z,21.40
2019-02-06T18:54:14.348Z,27.33
2019-02-06T18:57:08.775Z,25.93
2019-02-06T18:59:43.455Z,25.63
2019-02-06T19:02:18.388Z,26.73
2019-02-06T19:05:14.758Z,25.23
2019-02-06T19:07:49.273Z,22.20
2019-02-06T19:10:22.532Z,24.37
2019-02-06T19:13:01.627Z,22.00
2019-02-06T19:15:41.174Z,23.23
2019-02-06T19:18:17.141Z,20.37
2019-02-06T19:21:07.178Z,29.13
2019-02-06T19:24:05.223Z,25.63
2019-02-06T19:27:01.567Z,19.83
2019-02-06T19:29:36.480Z,26.13
2019-02-06T19:32:31.887Z,24.20
2019-02-06T19:35:08.886Z,22.87
2019-02-06T19:37:49.165Z,29.07
2019-02-06T19:40:31.116Z,27.33
2019-02-06T19:43:09.253Z,20.53
2019-02-06T19:45:45.582Z,25.93
2019-02-06T19:48:22.334Z,24.03
2019-02-06T19:51:00.935Z,29.30
2019-02-06T19:53:44.087Z,26.70
2019-02-06T19:56:24.176Z,29.97
2019-02-06T19:59:06.744Z,30.77
2019-02-06T20:01:43.011Z,30.93
2019-02-06T20:04:20.824Z,29.07
2019-02-06T20:06:54.219Z,26.37
2019-02-06T20:09:26.631Z,27.23
2019-02-06T20:11:58.629Z,26.10
2019-02-06T20:14:40.104Z,24.77
2019-02-06T20:17:11.161Z,28.20
2019-02-06T20:19:48.923Z,27.20
2019-02-06T20:22:23.097Z,26.63
2019-02-06T20:25:05.516Z,25.57
2019-02-06T20:27:37.755Z,27.43
2019-02-06T20:30:14.618Z,25.77
2019-02-06T20:32:51.170Z,24.37
2019-02-06T20:35:31.481Z,29.47
2019-02-06T20:38:12.312Z,24.87
2019-02-06T20:40:52.228Z,32.33
2019-02-06T20:43:41.613Z,23.17
2019-02-06T20:46:28.241Z,27.83
2019-02-06T20:48:59.649Z,30.37
2019-02-06T20:51:30.350Z,24.17
2019-02-06T20:54:04.163Z,26.63
2019-02-06T20:56:36.379Z,25.13
2019-02-06T20:59:12.087Z,23.30
2019-02-06T21:01:45.934Z,24.33
2019-02-06T21:04:21.178Z,23.53
2019-02-06T21:07:02.251Z,22.63
2019-02-06T21:09:38.791Z,24.00
2019-02-06T21:12:15.807Z,24.00
2019-02-06T21:14:46.935Z,23.93
2019-02-06T21:17:27.957Z,24.77
2019-02-06T21:20:00.462Z,24.53
2019-02-06T21:22:32.825Z,22.27
2019-02-06T21:25:05.186Z,22.10
2019-02-06T21:27:37.096Z,24.00
2019-02-06T21:30:15.793Z,25.77
2019-02-06T21:32:47.499Z,25.27
2019-02-06T21:35:21.726Z,22.43
2019-02-06T21:37:57.851Z,22.97
2019-02-06T21:40:42.000Z,27.97
2019-02-06T21:43:17.528Z,23.83
2019-02-06T21:45:52.086Z,27.73
2019-02-06T21:48:25.597Z,23.03
2019-02-06T21:50:56.401Z,27.27
2019-02-06T21:53:29.983Z,23.90
2019-02-06T21:56:01.068Z,23.03
2019-02-06T21:58:34.630Z,24.20
2019-02-06T22:01:05.852Z,26.30
2019-02-06T22:03:40.634Z,23.47
2019-02-06T22:06:14.406Z,22.37
2019-02-06T22:08:47.667Z,22.47
2019-02-06T22:11:18.828Z,21.40
2019-02-06T22:13:55.453Z,24.60
2019-02-06T22:16:23.717Z,21.40
2019-02-06T22:18:55.281Z,20.07
2019-02-06T22:21:32.650Z,21.47
2019-02-06T22:24:05.635Z,17.27
2019-02-06T22:26:38.864Z,21.27
2019-02-06T22:29:16.701Z,22.60
2019-02-06T22:31:55.221Z,19.37
2019-02-06T22:34:25.980Z,19.80
2019-02-06T22:36:57.328Z,17.43
2019-02-06T22:39:28.049Z,16.30
2019-02-06T22:42:02.202Z,17.90
2019-02-06T22:44:37.619Z,19.40
2019-02-06T22:47:08.225Z,16.97
2019-02-06T22:49:42.133Z,19.27
2019-02-06T22:52:15.442Z,18.03
2019-02-06T22:54:50.804Z,18.00
2019-02-06T22:57:25.083Z,16.67
2019-02-06T22:59:58.792Z,20.47
2019-02-06T23:02:33.659Z,19.33
2019-02-06T23:05:07.679Z,20.63
2019-02-06T23:07:39.109Z,19.07
2019-02-06T23:10:10.151Z,20.37
2019-02-06T23:12:41.855Z,23.37
2019-02-06T23:15:15.039Z,20.33
2019-02-06T23:17:49.477Z,19.67
2019-02-06T23:20:20.614Z,18.47
2019-02-06T23:23:03.702Z,17.67
2019-02-06T23:25:53.465Z,17.97
2019-02-06T23:28:43.094Z,19.80
2019-02-06T23:31:17.611Z,22.13
2019-02-06T23:33:48.482Z,16.77
2019-02-06T23:36:19.408Z,17.53
2019-02-06T23:38:50.464Z,17.87
2019-02-06T23:41:24.680Z,16.97
2019-02-06T23:43:55.599Z,14.00
2019-02-06T23:46:31.047Z,19.73
2019-02-06T23:49:03.253Z,15.77
2019-02-06T23:51:34.155Z,15.07
2019-02-06T23:54:05.679Z,15.13
2019-02-06T23:56:37.555Z,14.53
2019-02-06T23:59:08.841Z,12.33
